Time;durP1;ratioP1;P1;durP2;ratioP2;P2;SDS_P1;SDS_P2;PMS_P1;PMS_P2;Temp;Humidity;BMP_temperature;BMP_pressure;BME280_temperature;BME280_humidity;BME280_pressure;Samples;Min_cycle;Max_cycle;Signal;HPM_P1;HPM_P2
2021/09/30 00:02:04;;;;;;;;;;;6.10;99.90;;;;;;5051046;28;19936;-87
2021/09/30 00:04:29;;;;;;;;;;;6.10;99.90;;;;;;5041353;28;19916;-87
2021/09/30 00:06:55;;;;;;;;;;;6.00;99.90;;;;;;5057911;28;19908;-87
2021/09/30 00:09:20;;;;;;;;;;;6.00;99.90;;;;;;5057801;28;19958;-87
2021/09/30 00:11:48;;;;;;;;;;;6.00;99.90;;;;;;5056488;28;19995;-87
2021/09/30 00:17:29;;;;;;;;;;;6.10;99.90;;;;;;5009857;28;19909;-87
2021/09/30 02:20:10;;;;;;;;;;;5.60;99.90;;;;;;5061560;28;19916;-87
2021/09/30 02:22:49;;;;;;;;;;;5.50;99.90;;;;;;5048988;28;20387;-87
2021/09/30 02:30:46;;;;;;;;;;;5.50;99.90;;;;;;5060882;28;19913;-87
2021/09/30 03:00:38;;;;;;;;;;;5.00;99.90;;;;;;5072789;28;19908;-88
2021/09/30 03:03:04;;;;;;;;;;;4.90;99.90;;;;;;5057569;28;19917;-87
2021/09/30 03:05:30;;;;;;;;;;;4.80;99.90;;;;;;5048370;28;20018;-87
2021/09/30 03:07:56;;;;;;;;;;;4.70;99.90;;;;;;5036530;28;19909;-87
2021/09/30 03:10:23;;;;;;;;;;;4.80;99.90;;;;;;5054336;28;19908;-87
2021/09/30 03:12:50;;;;;;;;;;;4.70;99.90;;;;;;5054014;28;19916;-87
2021/09/30 03:17:58;;;;;;;;;;;4.70;99.90;;;;;;5057248;28;19991;-86
2021/09/30 03:23:04;;;;;;;;;;;4.70;99.90;;;;;;5072154;28;19912;-88
2021/09/30 03:25:30;;;;;;;;;;;4.80;99.90;;;;;;5054422;28;19971;-86
2021/09/30 03:27:56;;;;;;;;;;;4.80;99.90;;;;;;5054337;28;19958;-88
2021/09/30 03:30:27;;;;;;;;;;;4.80;99.90;;;;;;5043900;28;19909;-88
2021/09/30 03:32:53;;;;;;;;;;;4.80;99.90;;;;;;5051998;28;19999;-88
2021/09/30 03:35:19;;;;;;;;;;;4.80;99.90;;;;;;5070214;28;20019;-87
2021/09/30 03:37:44;;;;;;;;;;;4.80;99.90;;;;;;5054244;28;19908;-88
2021/09/30 03:40:10;;;;;;;;;;;4.70;99.90;;;;;;5071042;28;20367;-88
2021/09/30 03:42:36;;;;;;;;;;;4.70;99.90;;;;;;5054322;28;19916;-87
2021/09/30 03:45:02;;;;;;;;;;;4.70;99.90;;;;;;5054022;28;20423;-88
2021/09/30 03:47:27;;;;;;;;;;;4.70;99.90;;;;;;5054817;28;19909;-88
2021/09/30 03:49:54;;;;;;;;;;;4.60;99.90;;;;;;5040602;28;20059;-88
2021/09/30 03:55:05;;;;;;;;;;;4.60;99.90;;;;;;5052430;28;19912;-87
2021/09/30 04:00:22;;;;;;;;;;;4.60;99.90;;;;;;5047628;28;19909;-87
2021/09/30 04:02:48;;;;;;;;;;;4.50;99.90;;;;;;5047518;28;20033;-86
2021/09/30 04:05:13;;;;;;;;;;;4.40;99.90;;;;;;5047891;28;19915;-88
2021/09/30 04:07:40;;;;;;;;;;;4.40;99.90;;;;;;5047986;28;20399;-88
2021/09/30 04:10:06;;;;;;;;;;;4.40;99.90;;;;;;5052719;28;20352;-88
2021/09/30 04:12:31;;;;;;;;;;;4.30;99.90;;;;;;5047579;28;19983;-88
2021/09/30 04:14:57;;;;;;;;;;;4.30;99.90;;;;;;5047527;28;20418;-87
2021/09/30 04:17:22;;;;;;;;;;;4.30;99.90;;;;;;5058351;28;19958;-88
2021/09/30 04:19:48;;;;;;;;;;;4.40;99.90;;;;;;5036149;28;19999;-88
2021/09/30 04:22:13;;;;;;;;;;;4.40;99.90;;;;;;5040772;28;19909;-88
2021/09/30 04:24:41;;;;;;;;;;;4.40;99.90;;;;;;5052037;28;20004;-87
2021/09/30 04:27:06;;;;;;;;;;;4.20;99.90;;;;;;5052352;28;20364;-88
2021/09/30 04:29:32;;;;;;;;;;;4.10;99.90;;;;;;5052550;28;19912;-88
2021/09/30 04:31:57;;;;;;;;;;;4.10;99.90;;;;;;5052929;28;19915;-88
2021/09/30 04:34:23;;;;;;;;;;;4.20;99.90;;;;;;5069718;28;19916;-86
2021/09/30 04:36:48;;;;;;;;;;;4.30;99.90;;;;;;5071766;28;20368;-87
2021/09/30 04:39:15;;;;;;;;;;;4.40;99.90;;;;;;5041789;28;20365;-88
2021/09/30 04:41:43;;;;;;;;;;;4.50;99.90;;;;;;5040820;28;19908;-87
2021/09/30 04:44:09;;;;;;;;;;;4.40;99.90;;;;;;5042415;28;19920;-87
2021/09/30 04:46:35;;;;;;;;;;;4.40;99.90;;;;;;5067304;28;19908;-88
2021/09/30 04:49:00;;;;;;;;;;;4.30;99.90;;;;;;5050355;28;19912;-88
2021/09/30 04:51:26;;;;;;;;;;;4.20;99.90;;;;;;5053262;28;19916;-88
2021/09/30 04:53:51;;;;;;;;;;;4.10;99.90;;;;;;5044942;28;19948;-86
2021/09/30 04:56:17;;;;;;;;;;;4.10;99.90;;;;;;5056977;28;20281;-88
2021/09/30 04:58:42;;;;;;;;;;;4.00;99.90;;;;;;5050068;28;19916;-88
2021/09/30 05:01:08;;;;;;;;;;;4.00;99.90;;;;;;5050803;28;19909;-87
2021/09/30 05:03:34;;;;;;;;;;;3.90;99.90;;;;;;5043637;28;20319;-86
2021/09/30 05:05:59;;;;;;;;;;;3.90;99.90;;;;;;5050490;28;19912;-88
2021/09/30 05:08:26;;;;;;;;;;;3.90;99.90;;;;;;5073374;28;19916;-87
2021/09/30 05:10:52;;;;;;;;;;;3.90;99.90;;;;;;5057777;28;20291;-87
2021/09/30 05:13:21;;;;;;;;;;;3.90;99.90;;;;;;5056666;28;19909;-88
2021/09/30 05:15:47;;;;;;;;;;;3.80;99.90;;;;;;5037530;28;19958;-88
2021/09/30 05:18:13;;;;;;;;;;;3.80;99.90;;;;;;5048454;28;20376;-87
2021/09/30 05:20:38;;;;;;;;;;;3.90;99.90;;;;;;5054676;28;19915;-86
2021/09/30 05:23:04;;;;;;;;;;;3.80;99.90;;;;;;5055680;28;19912;-86
2021/09/30 05:25:29;;;;;;;;;;;3.80;99.90;;;;;;5064925;28;19959;-88
2021/09/30 05:27:55;;;;;;;;;;;3.80;99.90;;;;;;5051660;28;20007;-88
2021/09/30 05:30:21;;;;;;;;;;;3.80;99.90;;;;;;5053560;28;19916;-86
2021/09/30 05:32:47;;;;;;;;;;;3.80;99.90;;;;;;5059459;28;20330;-87
2021/09/30 05:35:12;;;;;;;;;;;3.90;99.90;;;;;;5056344;28;19955;-87
2021/09/30 05:37:38;;;;;;;;;;;3.90;99.90;;;;;;5045642;28;20008;-87
2021/09/30 05:40:04;;;;;;;;;;;3.90;99.90;;;;;;5053388;28;20325;-87
2021/09/30 05:42:29;;;;;;;;;;;4.00;99.90;;;;;;5086715;28;19912;-87
2021/09/30 05:44:57;;;;;;;;;;;4.00;99.90;;;;;;5039540;28;19948;-87
2021/09/30 05:47:23;;;;;;;;;;;4.00;99.90;;;;;;5043297;28;19995;-87
2021/09/30 05:49:48;;;;;;;;;;;4.00;99.90;;;;;;5041660;28;19909;-88
2021/09/30 05:52:14;;;;;;;;;;;4.10;99.90;;;;;;5049859;28;20566;-88
2021/09/30 05:54:39;;;;;;;;;;;4.10;99.90;;;;;;5049678;28;19917;-87
2021/09/30 05:57:05;;;;;;;;;;;4.10;99.90;;;;;;5060802;28;20011;-86
2021/09/30 05:59:31;;;;;;;;;;;4.20;99.90;;;;;;5045695;28;19909;-88
2021/09/30 06:02:37;;;;;;;;;;;4.20;99.90;;;;;;5073601;28;20291;-87
2021/09/30 06:13:00;;;;;;;;;;;4.50;99.90;;;;;;5054073;28;19909;-86
2021/09/30 06:15:31;;;;;;;;;;;4.40;99.90;;;;;;5054580;28;20338;-87
2021/09/30 06:17:58;;;;;;;;;;;4.50;99.90;;;;;;5054725;28;19940;-87
2021/09/30 06:20:23;;;;;;;;;;;4.50;99.90;;;;;;5036901;28;19908;-87
2021/09/30 06:22:49;;;;;;;;;;;4.40;99.90;;;;;;5042665;28;19927;-88
2021/09/30 06:25:15;;;;;;;;;;;4.50;99.90;;;;;;5055617;28;19999;-88
2021/09/30 06:27:40;;;;;;;;;;;4.50;99.90;;;;;;5055373;28;20383;-88
2021/09/30 06:30:06;;;;;;;;;;;4.70;99.90;;;;;;5053676;28;19987;-86
2021/09/30 06:32:31;;;;;;;;;;;4.60;99.90;;;;;;5055537;28;19916;-87
2021/09/30 06:34:57;;;;;;;;;;;4.60;99.90;;;;;;5059574;28;19984;-87
2021/09/30 06:37:23;;;;;;;;;;;4.80;99.90;;;;;;5052600;28;19978;-87
2021/09/30 06:39:48;;;;;;;;;;;4.80;99.90;;;;;;5071678;28;20398;-88
2021/09/30 06:42:14;;;;;;;;;;;4.90;99.90;;;;;;5055120;28;19908;-87
2021/09/30 06:44:39;;;;;;;;;;;5.00;99.90;;;;;;5068760;28;19917;-88
2021/09/30 06:47:05;;;;;;;;;;;5.10;99.90;;;;;;5036703;28;19909;-88
2021/09/30 06:49:30;;;;;;;;;;;5.20;99.90;;;;;;5053366;28;19912;-86
2021/09/30 06:51:56;;;;;;;;;;;5.20;99.90;;;;;;5049059;28;19912;-88
2021/09/30 06:54:22;;;;;;;;;;;5.20;99.90;;;;;;5047848;28;19908;-87
2021/09/30 06:56:51;;;;;;;;;;;5.30;99.90;;;;;;5059404;28;19920;-86
2021/09/30 06:59:21;;;;;;;;;;;5.50;99.90;;;;;;5055662;28;20510;-87
2021/09/30 07:01:47;;;;;;;;;;;5.60;99.90;;;;;;5040859;28;19947;-88
2021/09/30 07:04:15;;;;;;;;;;;5.70;99.90;;;;;;5064156;28;19969;-87
2021/09/30 07:06:41;;;;;;;;;;;5.80;99.90;;;;;;5051339;28;20439;-89
2021/09/30 07:09:09;;;;;;;;;;;6.00;99.90;;;;;;5053248;28;19913;-87
2021/09/30 07:11:52;;;;;;;;;;;6.10;99.90;;;;;;5053763;28;20070;-87
2021/09/30 07:14:18;;;;;;;;;;;6.30;99.90;;;;;;5052483;28;20390;-85
2021/09/30 07:16:46;;;;;;;;;;;6.50;99.90;;;;;;5058233;28;19916;-88
2021/09/30 07:19:12;;;;;;;;;;;6.60;99.90;;;;;;5055887;28;19916;-87
2021/09/30 07:21:43;;;;;;;;;;;6.80;99.90;;;;;;5056915;28;19916;-89
2021/09/30 07:24:09;;;;;;;;;;;6.80;99.90;;;;;;5047518;28;20000;-90
2021/09/30 07:26:34;;;;;;;;;;;7.20;99.90;;;;;;5062834;28;20355;-89
2021/09/30 07:29:02;;;;;;;;;;;7.40;99.90;;;;;;5060111;28;20003;-87
2021/09/30 07:31:28;;;;;;;;;;;7.40;99.90;;;;;;5064734;28;19912;-85
2021/09/30 07:33:53;;;;;;;;;;;7.60;99.90;;;;;;5069899;28;19920;-86
2021/09/30 07:36:20;;;;;;;;;;;7.70;99.90;;;;;;5064271;28;19999;-86
2021/09/30 07:38:46;;;;;;;;;;;7.90;99.90;;;;;;5044518;28;19931;-88
2021/09/30 07:41:11;;;;;;;;;;;8.00;99.90;;;;;;5037969;28;20365;-87
2021/09/30 07:43:37;;;;;;;;;;;8.40;99.90;;;;;;5047018;28;20398;-86
2021/09/30 07:46:03;;;;;;;;;;;8.50;99.90;;;;;;5045279;28;19913;-87
2021/09/30 07:48:28;;;;;;;;;;;8.80;99.90;;;;;;5073548;28;20369;-86
2021/09/30 07:50:54;;;;;;;;;;;9.20;99.90;;;;;;5054718;28;19981;-87
2021/09/30 07:53:23;;;;;;;;;;;11.20;99.90;;;;;;5047389;28;19920;-86
2021/09/30 07:55:52;;;;;;;;;;;13.10;99.90;;;;;;5043993;28;19980;-87
2021/09/30 07:58:18;;;;;;;;;;;15.00;99.90;;;;;;5037767;28;19978;-86
2021/09/30 08:00:43;;;;;;;;;;;15.80;99.90;;;;;;5049433;28;19944;-86
2021/09/30 08:03:09;;;;;;;;;;;15.60;99.90;;;;;;5073101;28;20035;-87
2021/09/30 08:05:36;;;;;;;;;;;15.80;99.90;;;;;;5061547;28;20393;-86
2021/09/30 08:08:06;;;;;;;;;;;15.90;99.90;;;;;;5083084;28;19974;-86
2021/09/30 08:10:32;;;;;;;;;;;16.60;99.90;;;;;;5049296;28;19908;-87
2021/09/30 08:13:00;;;;;;;;;;;17.20;99.90;;;;;;5051064;28;19919;-86
2021/09/30 08:15:33;;;;;;;;;;;17.10;99.90;;;;;;5044617;28;19909;-86
2021/09/30 08:18:01;;;;;;;;;;;16.90;99.90;;;;;;5048504;28;19912;-86
2021/09/30 08:20:27;;;;;;;;;;;18.20;99.90;;;;;;5063364;28;19909;-89
2021/09/30 08:22:53;;;;;;;;;;;18.20;99.20;;;;;;5047733;28;20265;-85
2021/09/30 08:25:19;;;;;;;;;;;17.50;98.80;;;;;;5065767;28;19943;-86
2021/09/30 08:27:44;;;;;;;;;;;16.70;99.90;;;;;;5061941;28;20353;-86
2021/09/30 08:30:12;;;;;;;;;;;16.60;99.90;;;;;;5079616;28;19913;-87
2021/09/30 08:32:38;;;;;;;;;;;17.30;99.10;;;;;;5045768;28;19909;-86
2021/09/30 08:35:04;;;;;;;;;;;17.70;99.10;;;;;;5067607;28;19916;-87
2021/09/30 08:37:31;;;;;;;;;;;17.20;98.50;;;;;;5074271;28;19931;-85
2021/09/30 08:39:57;;;;;;;;;;;16.30;99.40;;;;;;5065716;28;19909;-85
2021/09/30 08:42:22;;;;;;;;;;;16.50;99.90;;;;;;5069260;28;19938;-86
2021/09/30 08:44:48;;;;;;;;;;;17.20;99.90;;;;;;5051474;28;19945;-87
2021/09/30 08:47:18;;;;;;;;;;;16.70;99.90;;;;;;5064310;28;19955;-86
2021/09/30 08:49:44;;;;;;;;;;;17.60;99.90;;;;;;5039160;28;20254;-85
2021/09/30 08:52:12;;;;;;;;;;;18.40;99.80;;;;;;5069373;28;20011;-86
2021/09/30 08:54:37;;;;;;;;;;;18.50;97.10;;;;;;5067831;28;19909;-85
2021/09/30 08:57:06;;;;;;;;;;;17.30;99.90;;;;;;5053535;28;19917;-86
2021/09/30 08:59:32;;;;;;;;;;;17.60;99.20;;;;;;5051253;28;19908;-87
2021/09/30 09:02:05;;;;;;;;;;;18.70;96.00;;;;;;5045133;28;19916;-86
2021/09/30 09:04:33;;;;;;;;;;;19.80;96.00;;;;;;5044446;28;19917;-85
2021/09/30 09:07:06;;;;;;;;;;;20.80;94.40;;;;;;5045573;28;19971;-86
2021/09/30 09:09:32;;;;;;;;;;;19.60;92.60;;;;;;5073856;28;19915;-86
2021/09/30 09:12:02;;;;;;;;;;;20.00;94.50;;;;;;5053722;28;19913;-85
2021/09/30 09:14:28;;;;;;;;;;;21.10;92.30;;;;;;5067054;28;20034;-85
2021/09/30 09:16:58;;;;;;;;;;;21.20;90.20;;;;;;5068492;28;19908;-85
2021/09/30 09:19:30;;;;;;;;;;;20.40;92.20;;;;;;5047652;28;19916;-85
2021/09/30 09:21:58;;;;;;;;;;;19.60;92.60;;;;;;5069043;28;20013;-85
2021/09/30 09:24:23;;;;;;;;;;;21.60;89.60;;;;;;5044146;28;19913;-87
2021/09/30 09:26:56;;;;;;;;;;;21.20;85.10;;;;;;5043947;28;19909;-88
2021/09/30 09:29:22;;;;;;;;;;;21.20;84.00;;;;;;5048293;28;19909;-84
2021/09/30 09:31:49;;;;;;;;;;;21.50;83.80;;;;;;5056823;28;20280;-87
2021/09/30 09:34:18;;;;;;;;;;;21.50;82.20;;;;;;5048146;28;19908;-83
2021/09/30 09:36:44;;;;;;;;;;;18.40;83.60;;;;;;5065652;28;19931;-84
2021/09/30 09:39:10;;;;;;;;;;;19.60;86.30;;;;;;5050762;28;20368;-84
2021/09/30 09:41:35;;;;;;;;;;;19.00;87.10;;;;;;5043101;28;19908;-88
2021/09/30 09:44:03;;;;;;;;;;;19.90;85.70;;;;;;5041069;28;19913;-85
2021/09/30 09:46:30;;;;;;;;;;;19.90;86.30;;;;;;5059041;28;19909;-85
2021/09/30 09:49:05;;;;;;;;;;;18.90;86.50;;;;;;5044469;28;19999;-86
2021/09/30 09:51:43;;;;;;;;;;;19.60;88.20;;;;;;5049500;28;19908;-85
2021/09/30 09:54:10;;;;;;;;;;;20.40;87.20;;;;;;5055946;28;19999;-86
2021/09/30 09:56:36;;;;;;;;;;;18.40;84.20;;;;;;5037790;28;19964;-85
2021/09/30 09:59:02;;;;;;;;;;;17.60;87.20;;;;;;5046890;28;19948;-85
2021/09/30 10:01:36;;;;;;;;;;;17.30;86.70;;;;;;5060923;28;20344;-86
2021/09/30 10:04:01;;;;;;;;;;;17.90;87.70;;;;;;5051927;28;19958;-85
2021/09/30 10:06:28;;;;;;;;;;;18.70;88.60;;;;;;5036238;28;19909;-84
2021/09/30 10:08:54;;;;;;;;;;;17.30;88.60;;;;;;5039035;28;19915;-86
2021/09/30 10:11:20;;;;;;;;;;;16.20;91.70;;;;;;5061639;28;19913;-85
2021/09/30 10:13:45;;;;;;;;;;;15.60;91.30;;;;;;5055086;28;19915;-85
2021/09/30 10:16:14;;;;;;;;;;;15.20;94.60;;;;;;5054392;28;20268;-86
2021/09/30 10:18:40;;;;;;;;;;;15.50;95.30;;;;;;5047229;28;19912;-85
2021/09/30 10:21:05;;;;;;;;;;;16.10;93.80;;;;;;5040485;28;19915;-85
2021/09/30 10:23:36;;;;;;;;;;;15.80;93.60;;;;;;5059462;28;19913;-85
2021/09/30 10:26:13;;;;;;;;;;;16.00;93.90;;;;;;5061840;28;19909;-86
2021/09/30 10:28:40;;;;;;;;;;;16.10;94.40;;;;;;5083043;28;19915;-86
2021/09/30 10:31:19;;;;;;;;;;;16.40;94.00;;;;;;5072577;28;20007;-86
2021/09/30 10:33:45;;;;;;;;;;;16.40;93.00;;;;;;5048587;28;20019;-86
2021/09/30 10:36:29;;;;;;;;;;;16.40;94.10;;;;;;5053087;28;20392;-85
2021/09/30 10:39:13;;;;;;;;;;;16.10;90.70;;;;;;5051395;28;20376;-86
2021/09/30 10:41:39;;;;;;;;;;;15.80;94.50;;;;;;5054679;28;20257;-86
2021/09/30 10:44:11;;;;;;;;;;;15.90;94.90;;;;;;5068524;28;19919;-87
2021/09/30 10:46:37;;;;;;;;;;;15.10;93.90;;;;;;5053048;28;19908;-86
2021/09/30 10:49:22;;;;;;;;;;;14.80;94.30;;;;;;5044545;28;19962;-86
2021/09/30 10:52:06;;;;;;;;;;;15.90;93.90;;;;;;5070477;28;19913;-85
2021/09/30 10:54:38;;;;;;;;;;;16.60;92.30;;;;;;5049293;28;19908;-86
2021/09/30 10:57:23;;;;;;;;;;;18.40;86.50;;;;;;5057478;28;19970;-87
2021/09/30 10:59:49;;;;;;;;;;;19.60;86.60;;;;;;5048453;28;19931;-86
2021/09/30 11:02:14;;;;;;;;;;;21.00;79.40;;;;;;5050998;28;20364;-86
2021/09/30 11:05:06;;;;;;;;;;;22.70;75.80;;;;;;5053877;28;19920;-86
2021/09/30 11:07:32;;;;;;;;;;;21.80;73.60;;;;;;5055527;28;19916;-85
2021/09/30 11:10:16;;;;;;;;;;;23.50;74.40;;;;;;5051779;28;19909;-87
2021/09/30 11:13:00;;;;;;;;;;;23.10;72.20;;;;;;5042014;28;19948;-86
2021/09/30 11:15:45;;;;;;;;;;;22.90;70.60;;;;;;5074133;28;19915;-86
2021/09/30 11:18:31;;;;;;;;;;;22.70;68.90;;;;;;5048367;28;20364;-88
2021/09/30 11:20:56;;;;;;;;;;;23.80;69.50;;;;;;5061859;28;19914;-86
2021/09/30 11:23:40;;;;;;;;;;;23.80;62.70;;;;;;5064047;28;19943;-86
2021/09/30 11:26:07;;;;;;;;;;;24.00;63.80;;;;;;5054197;28;19909;-88
2021/09/30 11:28:32;;;;;;;;;;;23.80;59.20;;;;;;5070292;28;19909;-87
2021/09/30 11:31:19;;;;;;;;;;;23.40;63.00;;;;;;5047508;28;19952;-84
2021/09/30 11:33:45;;;;;;;;;;;19.10;73.10;;;;;;5053952;28;20002;-89
2021/09/30 11:36:10;;;;;;;;;;;17.60;76.70;;;;;;5074064;28;19967;-86
2021/09/30 11:38:36;;;;;;;;;;;19.40;69.80;;;;;;5051361;28;19913;-86
2021/09/30 11:41:02;;;;;;;;;;;21.90;68.40;;;;;;5077386;28;19956;-85
2021/09/30 11:43:28;;;;;;;;;;;18.50;72.50;;;;;;5063430;28;19917;-85
2021/09/30 11:45:53;;;;;;;;;;;16.00;77.60;;;;;;5062662;28;20387;-85
2021/09/30 11:48:18;;;;;;;;;;;14.80;82.90;;;;;;5049134;28;19912;-86
2021/09/30 11:50:54;;;;;;;;;;;14.80;84.90;;;;;;5040492;28;19909;-85
2021/09/30 11:53:19;;;;;;;;;;;14.70;84.90;;;;;;5060537;28;19913;-85
2021/09/30 11:55:45;;;;;;;;;;;14.60;86.30;;;;;;5068933;28;20019;-85
2021/09/30 11:58:12;;;;;;;;;;;14.50;87.50;;;;;;5046291;28;20322;-85
2021/09/30 12:00:40;;;;;;;;;;;14.90;89.80;;;;;;5049769;28;19951;-85
2021/09/30 12:03:06;;;;;;;;;;;15.30;85.30;;;;;;5080339;28;20357;-85
2021/09/30 12:05:34;;;;;;;;;;;14.50;83.90;;;;;;5047964;28;19999;-85
2021/09/30 12:08:00;;;;;;;;;;;14.30;90.00;;;;;;5048900;28;19955;-85
2021/09/30 12:10:26;;;;;;;;;;;14.30;90.80;;;;;;5044008;28;19913;-85
2021/09/30 12:12:52;;;;;;;;;;;14.20;88.40;;;;;;5052595;28;19913;-86
2021/09/30 12:15:17;;;;;;;;;;;14.20;92.60;;;;;;5063225;28;19901;-85
2021/09/30 12:17:43;;;;;;;;;;;14.00;90.20;;;;;;5088606;28;19897;-87
2021/09/30 12:20:10;;;;;;;;;;;14.00;91.00;;;;;;5072604;28;19901;-86
2021/09/30 12:22:40;;;;;;;;;;;14.20;90.10;;;;;;5068908;28;19897;-85
2021/09/30 12:25:13;;;;;;;;;;;14.10;90.30;;;;;;5090439;28;19940;-84
2021/09/30 12:27:40;;;;;;;;;;;13.70;89.40;;;;;;5091620;28;19908;-85
2021/09/30 12:30:08;;;;;;;;;;;13.60;88.80;;;;;;5067371;28;20463;-84
2021/09/30 12:32:35;;;;;;;;;;;13.80;92.70;;;;;;5069425;28;19909;-83
2021/09/30 12:35:05;;;;;;;;;;;13.80;90.50;;;;;;5073583;28;19919;-84
2021/09/30 12:37:32;;;;;;;;;;;13.70;92.00;;;;;;5051031;28;19929;-84
2021/09/30 12:39:59;;;;;;;;;;;13.60;92.10;;;;;;5071863;28;20053;-84
2021/09/30 12:42:24;;;;;;;;;;;13.50;91.80;;;;;;5057894;28;19935;-85
2021/09/30 12:44:50;;;;;;;;;;;13.40;92.10;;;;;;5047216;28;19917;-82
2021/09/30 12:47:33;;;;;;;;;;;13.40;90.00;;;;;;5054379;28;19915;-84
2021/09/30 12:50:04;;;;;;;;;;;13.40;91.40;;;;;;5053787;28;19932;-83
2021/09/30 12:52:30;;;;;;;;;;;13.40;91.80;;;;;;5039943;28;19999;-83
2021/09/30 12:54:55;;;;;;;;;;;13.50;91.00;;;;;;5054039;28;19952;-83
2021/09/30 12:57:21;;;;;;;;;;;13.30;90.30;;;;;;5078538;28;19927;-83
2021/09/30 13:00:07;;;;;;;;;;;13.20;90.00;;;;;;5045935;28;19954;-85
2021/09/30 13:02:33;;;;;;;;;;;13.30;91.20;;;;;;5049325;28;19958;-84
2021/09/30 13:04:59;;;;;;;;;;;13.40;92.80;;;;;;5050742;28;20283;-83
2021/09/30 13:07:24;;;;;;;;;;;13.30;91.30;;;;;;5054544;28;19909;-83
2021/09/30 13:10:00;;;;;;;;;;;13.40;91.70;;;;;;5056046;28;20322;-84
2021/09/30 13:12:26;;;;;;;;;;;13.40;91.60;;;;;;5080509;28;19931;-84
2021/09/30 13:14:55;;;;;;;;;;;13.50;92.70;;;;;;5070424;28;20431;-84
2021/09/30 13:17:22;;;;;;;;;;;13.60;91.10;;;;;;5074996;28;19919;-84
2021/09/30 13:19:53;;;;;;;;;;;13.40;93.60;;;;;;5045411;28;20403;-86
2021/09/30 13:22:20;;;;;;;;;;;13.40;91.00;;;;;;5059326;28;19954;-84
2021/09/30 13:24:46;;;;;;;;;;;13.40;91.70;;;;;;5062212;28;20426;-86
2021/09/30 13:27:13;;;;;;;;;;;13.20;90.80;;;;;;5062935;28;19909;-85
2021/09/30 13:29:39;;;;;;;;;;;13.00;91.30;;;;;;5047887;28;19908;-83
2021/09/30 13:32:06;;;;;;;;;;;13.00;90.50;;;;;;5058696;28;20072;-84
2021/09/30 13:34:31;;;;;;;;;;;12.90;90.30;;;;;;5050258;28;19958;-85
2021/09/30 13:36:57;;;;;;;;;;;13.10;91.20;;;;;;5048791;28;19909;-84
2021/09/30 13:39:23;;;;;;;;;;;13.20;90.20;;;;;;5053195;28;19908;-85
2021/09/30 13:41:48;;;;;;;;;;;13.20;93.50;;;;;;5051948;28;19908;-83
2021/09/30 13:44:14;;;;;;;;;;;13.10;93.10;;;;;;5051241;28;19962;-84
2021/09/30 13:46:39;;;;;;;;;;;13.10;92.40;;;;;;5043641;28;19912;-83
2021/09/30 13:49:05;;;;;;;;;;;13.10;93.10;;;;;;5054517;28;19908;-85
2021/09/30 13:51:31;;;;;;;;;;;13.30;91.20;;;;;;5080283;28;19948;-84
2021/09/30 13:53:57;;;;;;;;;;;13.40;90.40;;;;;;5044854;28;19936;-84
2021/09/30 13:56:23;;;;;;;;;;;13.30;90.70;;;;;;4991223;28;1784945;-84
2021/09/30 13:58:49;;;;;;;;;;;13.40;90.50;;;;;;5075872;28;19987;-84
2021/09/30 14:01:14;;;;;;;;;;;13.30;91.30;;;;;;5051445;28;20401;-84
2021/09/30 14:03:40;;;;;;;;;;;13.30;90.70;;;;;;5059388;28;19916;-83
2021/09/30 14:06:05;;;;;;;;;;;13.40;91.40;;;;;;5045678;28;19909;-83
2021/09/30 14:08:32;;;;;;;;;;;13.60;91.90;;;;;;5058526;28;20006;-83
2021/09/30 14:10:58;;;;;;;;;;;13.50;92.80;;;;;;5058878;28;19919;-84
2021/09/30 14:13:24;;;;;;;;;;;13.40;91.00;;;;;;5042933;28;19909;-84
2021/09/30 14:15:50;;;;;;;;;;;13.30;90.90;;;;;;5065312;28;20426;-83
2021/09/30 14:18:15;;;;;;;;;;;13.40;91.10;;;;;;5053020;28;19930;-84
2021/09/30 14:20:41;;;;;;;;;;;13.40;89.90;;;;;;5051741;28;20428;-85
2021/09/30 14:23:06;;;;;;;;;;;13.30;91.40;;;;;;5052063;28;19913;-84
2021/09/30 14:25:32;;;;;;;;;;;13.30;91.00;;;;;;5066142;28;20299;-84
2021/09/30 14:27:57;;;;;;;;;;;13.50;91.20;;;;;;5052442;28;20000;-85
2021/09/30 14:30:23;;;;;;;;;;;13.60;90.80;;;;;;5042702;28;19912;-85
2021/09/30 14:32:51;;;;;;;;;;;13.50;92.20;;;;;;5054128;28;19909;-85
2021/09/30 14:35:17;;;;;;;;;;;13.50;92.10;;;;;;5045012;28;20273;-83
2021/09/30 14:37:46;;;;;;;;;;;13.60;91.90;;;;;;5072833;28;20291;-85
2021/09/30 14:40:12;;;;;;;;;;;13.50;91.50;;;;;;5046350;28;19916;-85
2021/09/30 14:42:38;;;;;;;;;;;13.70;91.50;;;;;;5044807;28;19909;-85
2021/09/30 14:45:04;;;;;;;;;;;13.70;91.70;;;;;;5046443;28;19913;-85
2021/09/30 14:47:30;;;;;;;;;;;13.50;90.60;;;;;;5047701;28;20391;-85
2021/09/30 14:49:56;;;;;;;;;;;13.50;92.20;;;;;;5051223;28;19910;-85
2021/09/30 14:52:21;;;;;;;;;;;13.60;92.40;;;;;;5037313;28;19915;-84
2021/09/30 14:54:49;;;;;;;;;;;13.60;91.10;;;;;;5055161;28;19970;-85
2021/09/30 14:57:15;;;;;;;;;;;13.80;94.50;;;;;;5055211;28;19922;-85
2021/09/30 14:59:40;;;;;;;;;;;13.80;93.10;;;;;;5054952;28;19913;-84
2021/09/30 15:02:06;;;;;;;;;;;13.90;93.90;;;;;;5054713;28;19984;-85
2021/09/30 15:04:31;;;;;;;;;;;14.90;91.00;;;;;;5054529;28;19918;-85
2021/09/30 15:06:57;;;;;;;;;;;18.20;87.70;;;;;;5054330;28;19915;-85
2021/09/30 15:09:22;;;;;;;;;;;18.30;83.90;;;;;;5059880;28;19910;-85
2021/09/30 15:11:48;;;;;;;;;;;16.50;90.00;;;;;;5048131;28;20031;-85
2021/09/30 15:14:14;;;;;;;;;;;16.00;89.20;;;;;;5048055;28;20012;-85
2021/09/30 15:19:24;;;;;;;;;;;20.00;76.10;;;;;;5058065;28;19909;-85
2021/09/30 15:21:50;;;;;;;;;;;20.10;75.90;;;;;;5049925;28;19944;-85
2021/09/30 15:24:16;;;;;;;;;;;20.40;71.90;;;;;;5063937;28;19935;-85
2021/09/30 15:26:43;;;;;;;;;;;19.70;76.30;;;;;;5051460;28;20439;-85
2021/09/30 15:29:09;;;;;;;;;;;19.80;77.60;;;;;;5043346;28;19964;-85
2021/09/30 15:31:35;;;;;;;;;;;20.10;76.30;;;;;;5054248;28;19909;-85
2021/09/30 15:34:01;;;;;;;;;;;19.60;76.30;;;;;;5053061;28;19927;-85
2021/09/30 15:36:28;;;;;;;;;;;19.70;75.40;;;;;;5053099;28;19916;-85
2021/09/30 15:38:57;;;;;;;;;;;19.90;77.40;;;;;;5053724;28;20311;-86
2021/09/30 15:41:23;;;;;;;;;;;19.70;76.80;;;;;;5065819;28;20278;-85
2021/09/30 15:43:48;;;;;;;;;;;19.60;77.40;;;;;;5053940;28;19995;-85
2021/09/30 15:46:14;;;;;;;;;;;19.80;78.40;;;;;;5071797;28;20003;-86
2021/09/30 15:48:40;;;;;;;;;;;19.40;74.60;;;;;;5064310;28;20315;-85
2021/09/30 15:51:07;;;;;;;;;;;19.20;75.40;;;;;;5038367;28;20331;-84
2021/09/30 15:53:33;;;;;;;;;;;19.10;75.40;;;;;;5046200;28;19909;-85
2021/09/30 15:55:59;;;;;;;;;;;18.50;79.70;;;;;;5033393;28;20296;-85
2021/09/30 15:58:24;;;;;;;;;;;18.30;75.50;;;;;;5052733;28;19924;-85
2021/09/30 16:00:50;;;;;;;;;;;18.30;77.10;;;;;;5051752;28;19919;-85
2021/09/30 16:03:15;;;;;;;;;;;17.70;78.00;;;;;;5047306;28;19912;-85
2021/09/30 16:05:41;;;;;;;;;;;17.70;79.40;;;;;;5051276;28;19931;-86
2021/09/30 16:08:07;;;;;;;;;;;17.20;76.00;;;;;;5053756;28;19909;-85
2021/09/30 16:10:33;;;;;;;;;;;16.00;82.30;;;;;;5087360;28;19975;-85
2021/09/30 16:12:58;;;;;;;;;;;16.00;83.30;;;;;;5060679;28;19963;-87
2021/09/30 16:15:24;;;;;;;;;;;16.30;83.40;;;;;;5066580;28;19919;-85
2021/09/30 16:17:49;;;;;;;;;;;15.40;82.60;;;;;;5054632;28;19916;-85
2021/09/30 16:20:15;;;;;;;;;;;13.80;91.10;;;;;;5037732;28;19909;-85
2021/09/30 16:22:41;;;;;;;;;;;12.90;94.50;;;;;;5071235;28;19913;-85
2021/09/30 16:25:07;;;;;;;;;;;12.30;95.60;;;;;;5055052;28;19952;-84
2021/09/30 16:27:33;;;;;;;;;;;12.00;96.70;;;;;;5051228;28;19908;-85
2021/09/30 16:29:59;;;;;;;;;;;11.90;97.40;;;;;;5064137;28;19916;-85
2021/09/30 16:32:25;;;;;;;;;;;11.60;97.40;;;;;;5066045;28;19955;-85
2021/09/30 16:34:50;;;;;;;;;;;11.50;99.30;;;;;;5036261;28;19912;-84
2021/09/30 16:37:16;;;;;;;;;;;11.30;99.90;;;;;;5053818;28;20674;-84
2021/09/30 16:39:41;;;;;;;;;;;11.10;99.90;;;;;;5053346;28;19909;-85
2021/09/30 16:42:07;;;;;;;;;;;11.00;99.90;;;;;;5051727;28;19958;-85
2021/09/30 16:44:32;;;;;;;;;;;10.80;99.90;;;;;;5047477;28;19916;-85
2021/09/30 16:46:58;;;;;;;;;;;10.70;99.90;;;;;;5048362;28;19916;-85
2021/09/30 16:49:23;;;;;;;;;;;10.50;99.90;;;;;;5046765;28;20356;-84
2021/09/30 16:51:49;;;;;;;;;;;10.40;99.90;;;;;;5052377;28;19908;-85
2021/09/30 16:54:16;;;;;;;;;;;10.20;99.90;;;;;;5051385;28;20045;-84
2021/09/30 16:56:42;;;;;;;;;;;10.00;99.90;;;;;;5038789;28;19913;-85
2021/09/30 16:59:09;;;;;;;;;;;9.90;99.90;;;;;;5057065;28;19908;-84
2021/09/30 17:01:34;;;;;;;;;;;9.70;99.90;;;;;;5057190;28;19908;-85
2021/09/30 17:04:00;;;;;;;;;;;9.50;99.90;;;;;;5056764;28;19939;-85
2021/09/30 17:06:25;;;;;;;;;;;9.40;99.90;;;;;;5058127;28;19979;-84
2021/09/30 17:08:51;;;;;;;;;;;9.20;99.90;;;;;;5058033;28;19986;-84
2021/09/30 17:11:19;;;;;;;;;;;9.10;99.90;;;;;;5057732;28;19908;-84
2021/09/30 17:13:44;;;;;;;;;;;9.00;99.90;;;;;;5071408;28;19958;-84
2021/09/30 17:16:10;;;;;;;;;;;9.00;99.90;;;;;;5056918;28;19917;-86
2021/09/30 17:18:36;;;;;;;;;;;8.90;99.90;;;;;;5045860;28;19965;-86
2021/09/30 17:21:02;;;;;;;;;;;8.80;99.90;;;;;;5043089;28;19959;-86